createdAt,value
2022-10-20T00:01:18.669Z,14.38
2022-10-20T00:03:46.306Z,14.41
2022-10-20T00:06:17.784Z,14.43
2022-10-20T00:08:45.771Z,14.44
2022-10-20T00:11:14.697Z,14.30
2022-10-20T00:13:42.370Z,14.28
2022-10-20T00:16:09.701Z,14.24
2022-10-20T00:18:37.133Z,14.10
2022-10-20T00:21:14.007Z,14.20
2022-10-20T00:23:41.617Z,14.11
2022-10-20T00:26:13.816Z,14.13
2022-10-20T00:28:41.371Z,14.18
2022-10-20T00:31:08.402Z,14.10
2022-10-20T00:33:35.629Z,14.06
2022-10-20T00:36:03.684Z,14.09
2022-10-20T00:38:30.889Z,14.12
2022-10-20T00:41:00.166Z,14.13
2022-10-20T00:43:40.825Z,14.09
2022-10-20T00:46:08.013Z,14.06
2022-10-20T00:48:35.242Z,14.11
2022-10-20T00:51:02.385Z,14.23
2022-10-20T00:53:30.090Z,14.24
2022-10-20T00:55:58.377Z,14.13
2022-10-20T00:58:26.269Z,14.07
2022-10-20T01:00:56.138Z,14.08
2022-10-20T01:03:45.875Z,14.10
2022-10-20T01:06:14.365Z,14.04
2022-10-20T01:08:41.572Z,13.91
2022-10-20T01:11:18.589Z,13.87
2022-10-20T01:14:05.848Z,13.89
2022-10-20T01:16:39.160Z,13.83
2022-10-20T01:19:12.037Z,13.88
2022-10-20T01:21:47.194Z,13.85
2022-10-20T01:24:18.218Z,13.85
2022-10-20T01:26:51.810Z,13.87
2022-10-20T01:29:24.557Z,13.78
2022-10-20T01:31:51.625Z,13.76
2022-10-20T01:34:30.172Z,13.79
2022-10-20T01:37:19.734Z,13.75
2022-10-20T01:40:06.310Z,13.78
2022-10-20T01:45:07.038Z,13.71
2022-10-20T01:47:35.489Z,13.69
2022-10-20T01:50:04.489Z,13.72
2022-10-20T01:52:31.801Z,13.75
2022-10-20T01:55:01.331Z,13.65
2022-10-20T01:57:38.867Z,13.61
2022-10-20T02:00:09.181Z,13.61
2022-10-20T02:02:55.153Z,13.58
2022-10-20T02:05:22.326Z,13.69
2022-10-20T02:07:49.715Z,13.63
2022-10-20T02:10:22.893Z,13.55
2022-10-20T02:12:55.454Z,13.58
2022-10-20T02:15:25.720Z,13.47
2022-10-20T02:17:57.446Z,13.42
2022-10-20T02:20:24.880Z,13.40
2022-10-20T02:22:53.272Z,13.53
2022-10-20T02:25:21.983Z,13.49
2022-10-20T02:27:54.398Z,13.50
2022-10-20T02:30:21.788Z,13.44
2022-10-20T02:32:51.629Z,13.52
2022-10-20T02:35:21.047Z,13.45
2022-10-20T02:37:48.183Z,13.42
2022-10-20T02:40:15.449Z,13.50
2022-10-20T02:42:43.664Z,13.55
2022-10-20T02:45:11.096Z,13.45
2022-10-20T02:47:38.686Z,13.34
2022-10-20T02:50:06.945Z,13.28
2022-10-20T02:52:34.458Z,13.37
2022-10-20T02:55:01.481Z,13.36
2022-10-20T02:57:28.568Z,13.32
2022-10-20T02:59:55.664Z,13.33
2022-10-20T03:02:22.956Z,13.38
2022-10-20T03:04:50.104Z,13.44
2022-10-20T03:07:17.150Z,13.44
2022-10-20T03:09:44.336Z,13.55
2022-10-20T03:12:11.416Z,13.55
2022-10-20T03:14:38.594Z,13.54
2022-10-20T03:17:05.648Z,13.49
2022-10-20T03:19:32.700Z,13.49
2022-10-20T03:21:59.809Z,13.50
2022-10-20T03:24:26.878Z,13.51
2022-10-20T03:26:53.941Z,13.54
2022-10-20T03:29:21.294Z,13.47
2022-10-20T03:34:16.589Z,13.34
2022-10-20T03:36:43.623Z,13.33
2022-10-20T03:39:10.812Z,13.31
2022-10-20T03:41:37.962Z,13.27
2022-10-20T03:44:05.066Z,13.22
2022-10-20T03:46:32.245Z,13.23
2022-10-20T03:48:59.261Z,13.07
2022-10-20T03:51:26.316Z,13.09
2022-10-20T03:53:53.464Z,13.05
2022-10-20T03:56:20.547Z,13.01
2022-10-20T03:58:47.657Z,12.95
2022-10-20T04:01:16.370Z,12.98
2022-10-20T04:03:44.869Z,12.93
2022-10-20T04:06:12.513Z,12.96
2022-10-20T04:08:39.889Z,12.85
2022-10-20T04:11:08.142Z,12.77
2022-10-20T04:13:35.153Z,12.84
2022-10-20T04:16:02.378Z,12.70
2022-10-20T04:18:29.473Z,12.63
2022-10-20T04:20:56.452Z,12.75
2022-10-20T04:23:23.717Z,12.67
2022-10-20T04:25:50.872Z,12.69
2022-10-20T04:28:19.033Z,12.69
2022-10-20T04:30:46.625Z,12.73
2022-10-20T04:33:13.659Z,12.65
2022-10-20T04:35:41.026Z,12.61
2022-10-20T04:38:08.553Z,12.53
2022-10-20T04:40:35.702Z,12.73
2022-10-20T04:43:02.758Z,12.65
2022-10-20T04:45:29.949Z,12.56
2022-10-20T04:47:56.964Z,12.49
2022-10-20T04:50:24.070Z,12.46
2022-10-20T04:53:07.421Z,12.53
2022-10-20T04:55:35.397Z,12.54
2022-10-20T04:58:02.641Z,12.55
2022-10-20T05:00:29.870Z,12.39
2022-10-20T05:02:57.151Z,12.41
2022-10-20T05:05:25.234Z,12.33
2022-10-20T05:07:52.795Z,12.46
2022-10-20T05:10:20.993Z,12.47
2022-10-20T05:12:48.970Z,12.37
2022-10-20T05:15:16.077Z,12.31
2022-10-20T05:17:43.869Z,12.31
2022-10-20T05:20:11.786Z,12.22
2022-10-20T05:22:39.161Z,12.33
2022-10-20T05:25:35.123Z,12.41
2022-10-20T05:27:54.710Z,12.40
2022-10-20T05:30:21.964Z,12.39
2022-10-20T05:32:49.039Z,12.41
2022-10-20T05:35:16.134Z,12.39
2022-10-20T05:37:43.376Z,12.35
2022-10-20T05:40:10.672Z,12.46
2022-10-20T05:42:38.256Z,12.37
2022-10-20T05:45:06.252Z,12.33
2022-10-20T05:47:33.512Z,12.33
2022-10-20T05:50:00.463Z,12.44
2022-10-20T05:52:27.685Z,12.48
2022-10-20T05:54:54.692Z,12.39
2022-10-20T05:57:21.721Z,12.45
2022-10-20T05:59:48.761Z,12.55
2022-10-20T06:02:15.799Z,12.53
2022-10-20T06:04:42.883Z,12.56
2022-10-20T06:07:12.888Z,12.64
2022-10-20T06:09:40.113Z,12.60
2022-10-20T06:14:35.380Z,12.76
2022-10-20T06:17:02.423Z,12.82
2022-10-20T06:19:29.412Z,12.92
2022-10-20T06:21:56.528Z,13.05
2022-10-20T06:24:23.554Z,13.07
2022-10-20T06:26:51.416Z,13.13
2022-10-20T06:29:19.016Z,13.19
2022-10-20T06:31:50.495Z,13.30
2022-10-20T06:34:21.848Z,13.39
2022-10-20T06:36:49.498Z,13.47
2022-10-20T06:39:17.973Z,13.54
2022-10-20T06:41:50.431Z,13.60
2022-10-20T06:44:20.065Z,13.69
2022-10-20T06:46:47.103Z,13.76
2022-10-20T06:49:14.507Z,13.84
2022-10-20T06:51:41.664Z,13.90
2022-10-20T06:54:09.393Z,13.99
2022-10-20T06:56:36.974Z,14.05
2022-10-20T06:59:04.172Z,14.09
2022-10-20T07:01:32.604Z,14.17
2022-10-20T07:04:00.968Z,14.25
2022-10-20T07:06:29.866Z,14.30
2022-10-20T07:08:57.409Z,14.38
2022-10-20T07:11:26.314Z,14.54
2022-10-20T07:13:53.699Z,14.74
2022-10-20T07:16:22.597Z,14.86
2022-10-20T07:18:50.082Z,14.99
2022-10-20T07:21:18.468Z,15.03
2022-10-20T07:23:45.570Z,15.10
2022-10-20T07:26:23.337Z,15.35
2022-10-20T07:28:55.847Z,15.46
2022-10-20T07:31:24.997Z,15.64
2022-10-20T07:34:06.925Z,15.85
2022-10-20T07:36:40.791Z,16.07
2022-10-20T07:39:07.983Z,16.29
2022-10-20T07:41:37.132Z,16.52
2022-10-20T07:44:04.887Z,16.70
2022-10-20T07:46:32.005Z,16.82
2022-10-20T07:49:10.573Z,16.86
2022-10-20T07:51:46.089Z,17.04
2022-10-20T07:54:13.161Z,17.29
2022-10-20T07:56:41.510Z,17.27
2022-10-20T07:59:09.785Z,17.52
2022-10-20T08:01:37.143Z,17.57
2022-10-20T08:04:04.483Z,17.71
2022-10-20T08:06:32.575Z,17.85
2022-10-20T08:09:00.274Z,18.06
2022-10-20T08:11:27.416Z,18.22
2022-10-20T08:13:54.484Z,18.47
2022-10-20T08:16:29.472Z,18.74
2022-10-20T08:19:14.112Z,18.79
2022-10-20T08:21:41.149Z,18.87
2022-10-20T08:24:08.484Z,18.91
2022-10-20T08:26:35.654Z,18.89
2022-10-20T08:29:02.976Z,18.86
2022-10-20T08:31:30.368Z,18.73
2022-10-20T08:33:57.680Z,18.82
2022-10-20T08:36:25.005Z,18.89
2022-10-20T08:38:52.276Z,19.00
2022-10-20T08:41:22.369Z,19.16
2022-10-20T08:43:52.808Z,19.31
2022-10-20T08:46:24.501Z,19.49
2022-10-20T08:48:52.833Z,19.69
2022-10-20T08:51:24.483Z,19.94
2022-10-20T08:53:55.630Z,20.09
2022-10-20T08:56:25.428Z,20.35
2022-10-20T08:58:53.129Z,20.40
2022-10-20T09:01:21.878Z,20.65
2022-10-20T09:04:03.261Z,20.67
2022-10-20T09:06:31.088Z,20.80
2022-10-20T09:09:00.322Z,20.77
2022-10-20T09:11:34.621Z,20.86
2022-10-20T09:14:02.313Z,20.73
2022-10-20T09:16:40.942Z,20.71
2022-10-20T09:19:18.762Z,20.64
2022-10-20T09:21:50.673Z,20.63
2022-10-20T09:24:20.150Z,20.53
2022-10-20T09:27:04.981Z,20.50
2022-10-20T09:29:37.830Z,20.67
2022-10-20T09:32:44.307Z,20.75
2022-10-20T09:35:24.356Z,20.83
2022-10-20T09:38:01.517Z,20.92
2022-10-20T09:40:28.954Z,20.99
2022-10-20T09:43:03.095Z,20.88
2022-10-20T09:45:33.019Z,20.80
2022-10-20T09:48:18.561Z,20.72
2022-10-20T09:50:51.043Z,20.59
2022-10-20T09:53:21.870Z,20.66
2022-10-20T09:55:51.265Z,20.89
2022-10-20T09:58:18.381Z,21.10
2022-10-20T10:00:54.575Z,21.19
2022-10-20T10:03:23.401Z,21.30
2022-10-20T10:06:00.164Z,21.46
2022-10-20T10:08:40.627Z,21.57
2022-10-20T10:11:19.987Z,21.58
2022-10-20T10:13:50.574Z,21.58
2022-10-20T10:16:20.838Z,21.64
2022-10-20T10:18:57.605Z,21.82
2022-10-20T10:21:25.446Z,21.81
2022-10-20T10:23:55.932Z,21.82
2022-10-20T10:26:45.303Z,21.96
2022-10-20T10:29:24.993Z,22.12
2022-10-20T10:32:16.614Z,22.31
2022-10-20T10:34:58.252Z,22.35
2022-10-20T10:37:27.690Z,22.27
2022-10-20T10:39:57.028Z,22.23
2022-10-20T10:42:44.255Z,22.46
2022-10-20T10:45:18.573Z,22.54
2022-10-20T10:48:15.113Z,22.52
2022-10-20T10:51:00.234Z,22.63
2022-10-20T10:53:48.889Z,22.62
2022-10-20T10:56:23.517Z,22.57
2022-10-20T10:58:58.792Z,22.64
2022-10-20T11:01:25.989Z,22.87
2022-10-20T11:04:05.029Z,22.96
2022-10-20T11:06:42.485Z,22.93
2022-10-20T11:09:29.898Z,22.98
2022-10-20T11:12:17.784Z,22.87
2022-10-20T11:14:45.006Z,22.65
2022-10-20T11:17:33.443Z,22.68
2022-10-20T11:20:24.106Z,22.72
2022-10-20T11:23:16.109Z,22.71
2022-10-20T11:25:52.374Z,22.50
2022-10-20T11:28:45.208Z,22.55
2022-10-20T11:31:29.616Z,22.61
2022-10-20T11:34:04.615Z,22.37
2022-10-20T11:36:43.131Z,22.58
2022-10-20T11:39:44.952Z,22.83
2022-10-20T11:42:45.934Z,22.98
2022-10-20T11:45:30.501Z,22.84
2022-10-20T11:48:12.691Z,22.86
2022-10-20T11:50:42.271Z,22.71
2022-10-20T11:53:12.537Z,22.66
2022-10-20T11:56:18.128Z,22.83
2022-10-20T11:59:22.041Z,22.57
2022-10-20T12:02:36.688Z,22.49
2022-10-20T12:05:07.890Z,22.44
2022-10-20T12:08:30.001Z,22.35
2022-10-20T12:11:09.007Z,22.46
2022-10-20T12:13:57.412Z,22.52
2022-10-20T12:17:05.438Z,22.63
2022-10-20T12:19:35.671Z,22.70
2022-10-20T12:22:28.886Z,22.85
2022-10-20T12:24:56.393Z,22.84
2022-10-20T12:27:27.646Z,22.64
2022-10-20T12:30:22.617Z,22.60
2022-10-20T12:33:16.254Z,22.63
2022-10-20T12:36:17.624Z,22.60
2022-10-20T12:38:48.880Z,22.57
2022-10-20T12:41:42.314Z,22.62
2022-10-20T12:44:17.582Z,22.52
2022-10-20T12:47:09.223Z,22.33
2022-10-20T12:49:43.174Z,22.38
2022-10-20T12:53:34.420Z,22.44
2022-10-20T12:56:00.488Z,22.35
2022-10-20T12:58:30.159Z,22.21
2022-10-20T13:01:04.838Z,22.20
2022-10-20T13:03:32.275Z,22.21
2022-10-20T13:05:59.985Z,22.20
2022-10-20T13:08:33.478Z,22.24
2022-10-20T13:11:38.517Z,22.30
2022-10-20T13:14:32.659Z,22.32
2022-10-20T13:17:28.540Z,22.33
2022-10-20T13:20:02.571Z,22.38
2022-10-20T13:22:38.953Z,22.36
2022-10-20T13:25:14.659Z,22.25
2022-10-20T13:27:42.598Z,21.87
2022-10-20T13:30:10.774Z,22.06
2022-10-20T13:33:11.003Z,22.12
2022-10-20T13:35:57.369Z,22.04
2022-10-20T13:38:53.994Z,21.94
2022-10-20T13:41:24.499Z,21.99
2022-10-20T13:44:31.350Z,21.90
2022-10-20T13:47:07.172Z,22.14
2022-10-20T13:49:53.595Z,22.25
2022-10-20T13:52:21.630Z,22.24
2022-10-20T13:54:51.546Z,22.19
2022-10-20T13:57:29.622Z,22.13
2022-10-20T14:00:00.342Z,22.17
2022-10-20T14:02:34.552Z,21.98
2022-10-20T14:05:07.794Z,21.80
2022-10-20T14:07:40.267Z,21.58
2022-10-20T14:10:24.661Z,21.58
2022-10-20T14:12:53.289Z,21.61
2022-10-20T14:15:26.790Z,21.65
2022-10-20T14:17:59.896Z,21.71
2022-10-20T14:20:29.116Z,21.48
2022-10-20T14:22:59.651Z,21.51
2022-10-20T14:25:28.302Z,21.63
2022-10-20T14:27:56.692Z,21.81
2022-10-20T14:30:24.709Z,21.66
2022-10-20T14:32:53.421Z,21.53
2022-10-20T14:35:41.292Z,21.47
2022-10-20T14:38:31.745Z,21.47
2022-10-20T14:41:00.126Z,21.60
2022-10-20T14:43:40.586Z,21.62
2022-10-20T14:46:11.555Z,21.66
2022-10-20T14:48:45.231Z,21.30
2022-10-20T14:51:38.246Z,21.51
2022-10-20T14:54:20.804Z,21.50
2022-10-20T14:56:51.383Z,21.30
2022-10-20T14:59:27.782Z,21.08
2022-10-20T15:02:11.913Z,21.01
2022-10-20T15:04:44.106Z,20.93
2022-10-20T15:07:28.179Z,20.89
2022-10-20T15:10:05.004Z,20.84
2022-10-20T15:12:42.541Z,20.64
2022-10-20T15:15:12.545Z,20.62
2022-10-20T15:17:43.057Z,20.51
2022-10-20T15:20:32.229Z,20.52
2022-10-20T15:23:23.557Z,20.38
2022-10-20T15:26:07.570Z,20.44
2022-10-20T15:28:51.421Z,20.26
2022-10-20T15:31:20.679Z,20.19
2022-10-20T15:33:48.784Z,20.12
2022-10-20T15:36:21.058Z,19.99
2022-10-20T15:38:51.754Z,19.96
2022-10-20T15:41:22.217Z,20.02
2022-10-20T15:43:49.434Z,19.98
2022-10-20T15:46:17.311Z,19.93
2022-10-20T15:48:45.186Z,19.86
2022-10-20T15:51:29.133Z,19.81
2022-10-20T15:53:57.578Z,19.72
2022-10-20T15:56:25.629Z,19.62
2022-10-20T15:58:53.108Z,19.55
2022-10-20T16:01:21.706Z,19.50
2022-10-20T16:03:50.242Z,19.37
2022-10-20T16:06:18.729Z,19.28
2022-10-20T16:08:48.009Z,19.14
2022-10-20T16:11:16.464Z,19.14
2022-10-20T16:13:44.418Z,19.03
2022-10-20T16:16:16.088Z,19.00
2022-10-20T16:18:43.772Z,18.91
2022-10-20T16:21:10.832Z,18.81
2022-10-20T16:23:42.646Z,18.73
2022-10-20T16:26:12.641Z,18.68
2022-10-20T16:28:39.665Z,18.56
2022-10-20T16:31:10.783Z,18.54
2022-10-20T16:33:38.047Z,18.40
2022-10-20T16:38:40.263Z,18.36
2022-10-20T16:41:09.404Z,18.32
2022-10-20T16:44:01.257Z,18.31
2022-10-20T16:46:32.107Z,18.27
2022-10-20T16:48:59.291Z,18.24
2022-10-20T16:51:26.365Z,18.21
2022-10-20T16:53:55.678Z,18.22
2022-10-20T16:56:25.433Z,18.30
2022-10-20T16:58:52.481Z,18.28
2022-10-20T17:01:22.007Z,18.30
2022-10-20T17:03:52.679Z,18.39
2022-10-20T17:06:21.280Z,18.34
2022-10-20T17:08:48.465Z,18.30
2022-10-20T17:11:17.120Z,18.21
2022-10-20T17:13:44.579Z,18.15
2022-10-20T17:16:12.947Z,18.03
2022-10-20T17:18:40.405Z,18.01
2022-10-20T17:21:08.046Z,18.04
2022-10-20T17:23:38.712Z,17.95
2022-10-20T17:26:09.606Z,17.91
2022-10-20T17:28:37.004Z,17.92
2022-10-20T17:31:07.980Z,17.85
2022-10-20T17:33:36.493Z,17.87
2022-10-20T17:36:03.812Z,17.84
2022-10-20T17:38:31.570Z,17.71
2022-10-20T17:41:06.349Z,17.82
2022-10-20T17:43:33.848Z,17.85
2022-10-20T17:46:03.893Z,17.94
2022-10-20T17:48:31.553Z,17.87
2022-10-20T17:51:20.521Z,17.79
2022-10-20T17:53:49.701Z,17.68
2022-10-20T17:56:31.948Z,17.69
2022-10-20T17:59:02.867Z,17.62
2022-10-20T18:01:33.299Z,17.56
2022-10-20T18:04:03.867Z,17.52
2022-10-20T18:06:34.320Z,17.52
2022-10-20T18:09:06.011Z,17.52
2022-10-20T18:11:35.351Z,17.51
2022-10-20T18:14:04.012Z,17.40
2022-10-20T18:16:34.297Z,17.38
2022-10-20T18:19:01.961Z,17.38
2022-10-20T18:21:30.548Z,17.31
2022-10-20T18:24:02.155Z,17.30
2022-10-20T18:26:31.812Z,17.45
2022-10-20T18:29:01.684Z,17.46
2022-10-20T18:31:31.063Z,17.42
2022-10-20T18:34:04.135Z,17.45
2022-10-20T18:36:31.717Z,17.42
2022-10-20T18:38:59.584Z,17.47
2022-10-20T18:41:33.008Z,17.43
2022-10-20T18:44:02.044Z,17.46
2022-10-20T18:46:30.816Z,17.45
2022-10-20T18:49:00.070Z,17.45
2022-10-20T18:51:27.460Z,17.45
2022-10-20T18:53:56.861Z,17.51
2022-10-20T18:56:26.537Z,17.50
2022-10-20T18:58:56.162Z,17.45
2022-10-20T19:01:26.774Z,17.43
2022-10-20T19:03:55.372Z,17.53
2022-10-20T19:06:25.696Z,17.48
2022-10-20T19:08:58.272Z,17.49
2022-10-20T19:11:29.279Z,17.29
2022-10-20T19:13:57.392Z,17.21
2022-10-20T19:16:27.838Z,17.09
2022-10-20T19:18:56.655Z,17.14
2022-10-20T19:21:25.579Z,17.02
2022-10-20T19:23:57.331Z,16.91
2022-10-20T19:26:27.621Z,16.86
2022-10-20T19:29:01.325Z,16.88
2022-10-20T19:31:33.220Z,16.89
2022-10-20T19:34:13.691Z,16.87
2022-10-20T19:36:43.320Z,16.76
2022-10-20T19:39:11.326Z,16.79
2022-10-20T19:41:38.854Z,16.69
2022-10-20T19:44:06.730Z,16.59
2022-10-20T19:46:34.201Z,16.54
2022-10-20T19:49:01.617Z,16.64
2022-10-20T19:51:29.193Z,16.67
2022-10-20T19:53:57.060Z,16.61
2022-10-20T19:56:24.400Z,16.65
2022-10-20T19:58:51.964Z,16.64
2022-10-20T20:01:19.441Z,16.57
2022-10-20T20:03:47.189Z,16.53
2022-10-20T20:06:18.244Z,16.53
2022-10-20T20:08:48.476Z,16.54
2022-10-20T20:11:26.895Z,16.49
2022-10-20T20:14:00.246Z,16.51
2022-10-20T20:16:28.630Z,16.53
2022-10-20T20:18:56.193Z,16.56
2022-10-20T20:21:23.921Z,16.57
2022-10-20T20:24:00.778Z,16.52
2022-10-20T20:26:36.650Z,16.51
2022-10-20T20:29:04.453Z,16.45
2022-10-20T20:31:32.187Z,16.39
2022-10-20T20:33:59.267Z,16.29
2022-10-20T20:36:27.376Z,16.31
2022-10-20T20:38:57.368Z,16.23
2022-10-20T20:41:26.573Z,16.12
2022-10-20T20:43:53.588Z,16.10
2022-10-20T20:46:22.590Z,16.00
2022-10-20T20:48:49.764Z,15.89
2022-10-20T20:51:16.962Z,15.92
2022-10-20T20:53:44.201Z,15.96
2022-10-20T20:56:12.543Z,15.90
2022-10-20T20:58:45.167Z,15.83
2022-10-20T21:01:16.966Z,15.73
2022-10-20T21:03:44.362Z,15.75
2022-10-20T21:06:13.135Z,15.89
2022-10-20T21:08:40.958Z,15.68
2022-10-20T21:11:18.214Z,15.65
2022-10-20T21:13:45.893Z,15.70
2022-10-20T21:16:14.335Z,15.70
2022-10-20T21:18:42.439Z,15.62
2022-10-20T21:23:43.934Z,15.62
2022-10-20T21:26:11.911Z,15.59
2022-10-20T21:28:39.061Z,15.59
2022-10-20T21:31:07.136Z,15.62
2022-10-20T21:33:34.893Z,15.54
2022-10-20T21:36:03.156Z,15.58
2022-10-20T21:38:31.119Z,15.65
2022-10-20T21:41:01.918Z,15.63
2022-10-20T21:43:29.832Z,15.67
2022-10-20T21:45:56.958Z,15.69
2022-10-20T21:48:23.957Z,15.68
2022-10-20T21:50:51.054Z,15.69
2022-10-20T21:53:18.040Z,15.72
2022-10-20T21:55:45.027Z,15.65
2022-10-20T21:58:12.054Z,15.61
2022-10-20T22:00:39.107Z,15.58
2022-10-20T22:03:06.148Z,15.64
2022-10-20T22:05:33.146Z,15.63
2022-10-20T22:08:00.155Z,15.58
2022-10-20T22:10:27.259Z,15.57
2022-10-20T22:12:54.278Z,15.48
2022-10-20T22:15:21.328Z,15.49
2022-10-20T22:17:48.378Z,15.40
2022-10-20T22:20:15.341Z,15.38
2022-10-20T22:22:42.514Z,15.36
2022-10-20T22:25:09.523Z,15.37
2022-10-20T22:27:42.344Z,15.38
2022-10-20T22:30:10.057Z,15.40
2022-10-20T22:32:37.241Z,15.43
2022-10-20T22:35:04.741Z,15.42
2022-10-20T22:37:32.022Z,15.43
2022-10-20T22:39:59.095Z,15.42
2022-10-20T22:42:26.120Z,15.34
2022-10-20T22:44:53.139Z,15.30
2022-10-20T22:47:20.223Z,15.29
2022-10-20T22:49:47.205Z,15.40
2022-10-20T22:52:14.327Z,15.42
2022-10-20T22:54:41.295Z,15.44
2022-10-20T22:57:08.311Z,15.43
2022-10-20T22:59:35.384Z,15.47
2022-10-20T23:02:02.327Z,15.46
2022-10-20T23:04:29.412Z,15.51
2022-10-20T23:06:59.561Z,15.60
2022-10-20T23:09:26.917Z,15.60
2022-10-20T23:11:53.868Z,15.54
2022-10-20T23:14:20.963Z,15.56
2022-10-20T23:16:47.915Z,15.54
2022-10-20T23:19:14.931Z,15.51
2022-10-20T23:21:41.952Z,15.51
2022-10-20T23:24:08.903Z,15.51
2022-10-20T23:26:35.946Z,15.52
2022-10-20T23:29:03.083Z,15.55
2022-10-20T23:31:30.384Z,15.57
2022-10-20T23:33:57.587Z,15.52
2022-10-20T23:36:24.824Z,15.56
2022-10-20T23:38:51.962Z,15.62
2022-10-20T23:41:19.213Z,15.56
2022-10-20T23:43:46.494Z,15.58
2022-10-20T23:46:13.624Z,15.56
2022-10-20T23:48:40.909Z,15.60
2022-10-20T23:51:08.083Z,15.58
2022-10-20T23:53:35.898Z,15.59
2022-10-20T23:56:03.585Z,15.50
2022-10-20T23:58:30.853Z,15.43
